Time;durP1;ratioP1;P1;durP2;ratioP2;P2;SDS_P1;SDS_P2;PMS_P1;PMS_P2;Temp;Humidity;BMP_temperature;BMP_pressure;BME280_temperature;BME280_humidity;BME280_pressure;Samples;Min_cycle;Max_cycle;Signal;HPM_P1;HPM_P2
2023/08/06 00:00:43;;;;;;;4.10;2.50;;;21.20;84.90;;;;;;5015578;28;20225;-72
2023/08/06 00:03:10;;;;;;;2.07;1.93;;;21.30;85.00;;;;;;5015761;28;20230;-72
2023/08/06 00:05:37;;;;;;;2.43;2.23;;;21.20;84.70;;;;;;5015288;28;20207;-73
2023/08/06 00:08:04;;;;;;;2.67;2.47;;;21.30;84.60;;;;;;5015224;28;20250;-72
2023/08/06 00:10:31;;;;;;;2.70;2.50;;;21.30;84.60;;;;;;5015065;28;20330;-72
2023/08/06 00:12:58;;;;;;;3.33;2.20;;;21.30;84.40;;;;;;5014892;28;20198;-72
2023/08/06 00:15:25;;;;;;;3.97;2.37;;;21.30;84.10;;;;;;5014493;28;20234;-73
2023/08/06 00:17:53;;;;;;;2.53;2.10;;;21.30;84.00;;;;;;5014732;28;20238;-72
2023/08/06 00:20:20;;;;;;;2.40;2.20;;;21.30;84.00;;;;;;5014589;28;20230;-72
2023/08/06 00:22:47;;;;;;;2.87;2.60;;;21.30;83.60;;;;;;4995784;28;20586;-72
2023/08/06 00:25:14;;;;;;;2.50;2.30;;;21.30;84.20;;;;;;5014042;28;20199;-72
2023/08/06 00:27:41;;;;;;;3.00;2.10;;;21.30;82.60;;;;;;5014046;28;20703;-72
2023/08/06 00:30:08;;;;;;;2.87;2.20;;;21.30;82.60;;;;;;5014388;28;20298;-72
2023/08/06 00:32:35;;;;;;;2.40;2.20;;;21.30;82.40;;;;;;5013835;28;20219;-72
2023/08/06 00:35:04;;;;;;;2.07;1.87;;;21.30;82.00;;;;;;5013959;28;20195;-72
2023/08/06 00:37:31;;;;;;;2.83;1.93;;;21.30;81.90;;;;;;5013789;28;20702;-73
2023/08/06 00:39:57;;;;;;;3.03;2.20;;;21.30;82.00;;;;;;4996047;28;20220;-72
2023/08/06 00:42:24;;;;;;;2.50;2.30;;;21.20;81.90;;;;;;4998568;28;20220;-72
2023/08/06 00:44:51;;;;;;;2.57;2.10;;;21.30;82.10;;;;;;4995207;28;20738;-72
2023/08/06 00:47:18;;;;;;;2.33;2.13;;;21.30;82.20;;;;;;5000286;28;20302;-72
2023/08/06 00:49:45;;;;;;;2.50;2.20;;;21.30;82.30;;;;;;5015014;28;20231;-72
2023/08/06 00:52:14;;;;;;;3.07;2.20;;;21.30;82.50;;;;;;5014698;28;20199;-72
2023/08/06 00:54:40;;;;;;;2.73;2.00;;;21.20;82.50;;;;;;5007387;28;20714;-72
2023/08/06 00:57:09;;;;;;;2.93;2.30;;;21.20;82.50;;;;;;4995175;28;20227;-72
2023/08/06 00:59:36;;;;;;;3.37;2.40;;;21.20;82.70;;;;;;4999301;28;20202;-73
2023/08/06 01:02:03;;;;;;;2.17;1.97;;;21.20;82.70;;;;;;5014899;28;20241;-72
2023/08/06 01:04:30;;;;;;;2.20;1.97;;;21.20;82.50;;;;;;5014353;28;20207;-72
2023/08/06 01:07:07;;;;;;;2.63;2.40;;;21.20;83.00;;;;;;5014615;28;20318;-72
2023/08/06 01:09:46;;;;;;;3.67;2.30;;;21.20;83.00;;;;;;5012722;28;20199;-72
2023/08/06 01:12:25;;;;;;;2.00;1.90;;;21.20;82.90;;;;;;5013423;28;20194;-72
2023/08/06 01:15:00;;;;;;;2.47;2.27;;;21.30;83.40;;;;;;5010445;28;20202;-72
2023/08/06 01:17:27;;;;;;;3.10;2.30;;;21.20;83.60;;;;;;5013501;28;20715;-73
2023/08/06 01:19:54;;;;;;;3.30;2.50;;;21.20;83.00;;;;;;5012719;28;20366;-73
2023/08/06 01:22:22;;;;;;;2.90;2.50;;;21.20;83.90;;;;;;5014020;28;20226;-72
2023/08/06 01:24:52;;;;;;;2.40;2.20;;;21.10;84.00;;;;;;5012532;28;20701;-72
2023/08/06 01:27:25;;;;;;;3.00;2.30;;;21.10;84.00;;;;;;4994264;28;20192;-72
2023/08/06 01:30:03;;;;;;;2.63;2.43;;;21.10;84.20;;;;;;5011763;28;20197;-72
2023/08/06 01:32:32;;;;;;;3.40;2.73;;;21.10;84.50;;;;;;5010096;28;20826;-72
2023/08/06 01:35:01;;;;;;;2.70;2.50;;;21.10;84.50;;;;;;5013430;28;20214;-72
2023/08/06 01:37:30;;;;;;;2.67;2.47;;;21.10;84.40;;;;;;5005684;28;20588;-72
2023/08/06 01:39:57;;;;;;;3.33;1.90;;;21.10;84.20;;;;;;5013273;28;20207;-72
2023/08/06 01:42:23;;;;;;;2.13;1.93;;;21.10;82.80;;;;;;5009111;28;20230;-72
2023/08/06 01:44:50;;;;;;;2.60;2.10;;;21.00;82.90;;;;;;5011684;28;20219;-72
2023/08/06 01:47:17;;;;;;;2.40;2.13;;;21.10;83.50;;;;;;5013267;28;20277;-72
2023/08/06 01:49:44;;;;;;;2.87;2.30;;;21.10;83.60;;;;;;5013109;28;20265;-72
2023/08/06 01:52:11;;;;;;;2.57;2.00;;;21.10;82.90;;;;;;5012977;28;20206;-72
2023/08/06 01:54:39;;;;;;;4.63;1.80;;;21.10;82.10;;;;;;5011864;28;20215;-72
2023/08/06 01:57:06;;;;;;;2.47;1.80;;;21.00;82.10;;;;;;5013420;28;20195;-72
2023/08/06 01:59:33;;;;;;;2.40;2.20;;;21.00;82.30;;;;;;5013156;28;20217;-72
2023/08/06 02:02:00;;;;;;;1.97;1.87;;;21.00;81.60;;;;;;5012486;28;20231;-72
2023/08/06 02:04:27;;;;;;;2.10;1.90;;;20.90;80.70;;;;;;5012719;28;20215;-72
2023/08/06 02:06:54;;;;;;;2.60;1.90;;;20.90;81.20;;;;;;4993234;28;20204;-72
2023/08/06 02:09:20;;;;;;;2.20;2.00;;;20.80;80.80;;;;;;4993145;28;20270;-72
2023/08/06 02:11:49;;;;;;;2.47;1.80;;;20.70;80.90;;;;;;5012357;28;20210;-72
2023/08/06 02:14:15;;;;;;;3.57;2.40;;;20.70;81.10;;;;;;5011803;28;20195;-72
2023/08/06 02:16:42;;;;;;;2.97;1.80;;;20.60;81.00;;;;;;5012505;28;20258;-72
2023/08/06 02:19:09;;;;;;;2.80;2.10;;;20.60;81.00;;;;;;5012671;28;20207;-72
2023/08/06 02:21:36;;;;;;;2.87;2.00;;;20.60;81.70;;;;;;5012160;28;20253;-72
2023/08/06 02:24:03;;;;;;;2.23;1.83;;;20.70;81.20;;;;;;5011456;28;20687;-72
2023/08/06 02:26:30;;;;;;;2.80;2.30;;;20.60;81.20;;;;;;5012443;28;20214;-72
2023/08/06 02:28:58;;;;;;;2.30;1.87;;;20.60;81.60;;;;;;5012460;28;20214;-72
2023/08/06 02:31:25;;;;;;;2.57;1.97;;;20.70;81.70;;;;;;5012151;28;20203;-72
2023/08/06 02:33:53;;;;;;;2.43;1.90;;;20.70;81.50;;;;;;5012041;28;20233;-71
2023/08/06 02:36:20;;;;;;;5.10;2.63;;;20.70;81.40;;;;;;5011658;28;20199;-71
2023/08/06 02:38:48;;;;;;;2.30;1.97;;;20.80;81.50;;;;;;5012209;28;20207;-71
2023/08/06 02:41:14;;;;;;;4.30;2.40;;;20.80;81.20;;;;;;5011829;28;20204;-72
2023/08/06 02:43:41;;;;;;;3.93;2.17;;;20.80;81.50;;;;;;4997403;28;20238;-71
2023/08/06 02:46:09;;;;;;;5.10;2.20;;;20.70;81.40;;;;;;5011320;28;20227;-71
2023/08/06 02:48:36;;;;;;;2.13;1.90;;;20.60;81.50;;;;;;5010989;28;20199;-72
2023/08/06 02:51:03;;;;;;;4.63;2.03;;;20.50;81.60;;;;;;5011696;28;20583;-71
2023/08/06 02:53:31;;;;;;;2.97;2.10;;;20.50;81.70;;;;;;5011996;28;20207;-71
2023/08/06 02:55:58;;;;;;;3.40;2.37;;;20.30;82.10;;;;;;5011902;28;20718;-72
2023/08/06 02:58:25;;;;;;;2.77;2.20;;;20.30;82.60;;;;;;5011601;28;20227;-71
2023/08/06 03:01:02;;;;;;;4.27;2.00;;;20.10;82.70;;;;;;5011687;28;20199;-71
2023/08/06 03:03:31;;;;;;;3.13;2.20;;;20.00;83.30;;;;;;5011448;28;20713;-71
2023/08/06 03:05:58;;;;;;;3.77;2.13;;;19.90;83.40;;;;;;5011862;28;20285;-71
2023/08/06 03:08:25;;;;;;;2.53;2.10;;;19.80;83.80;;;;;;5012340;28;20310;-72
2023/08/06 03:10:52;;;;;;;3.27;1.83;;;19.80;84.10;;;;;;5012092;28;20219;-72
2023/08/06 03:13:19;;;;;;;2.70;1.83;;;19.80;84.00;;;;;;5011172;28;20202;-71
2023/08/06 03:15:53;;;;;;;3.50;2.20;;;19.80;84.00;;;;;;5011361;28;20237;-71
2023/08/06 03:18:21;;;;;;;3.37;2.13;;;19.70;84.40;;;;;;5011998;28;20230;-71
2023/08/06 03:20:49;;;;;;;3.03;1.90;;;19.70;84.80;;;;;;5011619;28;20262;-71
2023/08/06 03:23:16;;;;;;;4.07;2.17;;;19.70;85.00;;;;;;5011513;28;20245;-71
2023/08/06 03:25:43;;;;;;;2.83;1.93;;;19.70;85.10;;;;;;5011049;28;20326;-71
2023/08/06 03:28:10;;;;;;;3.07;1.87;;;19.70;85.20;;;;;;5011607;28;20199;-71
2023/08/06 03:30:37;;;;;;;3.17;2.00;;;19.70;85.00;;;;;;5011174;28;20207;-71
2023/08/06 03:33:03;;;;;;;3.93;2.43;;;19.70;84.90;;;;;;5012759;28;20198;-71
2023/08/06 03:35:30;;;;;;;3.63;2.40;;;19.70;85.10;;;;;;5015050;28;20230;-72
2023/08/06 03:38:00;;;;;;;3.33;2.10;;;19.60;85.00;;;;;;5015479;28;20207;-71
2023/08/06 03:40:27;;;;;;;3.27;2.17;;;19.70;84.60;;;;;;5015286;28;20663;-71
2023/08/06 03:42:54;;;;;;;3.57;2.10;;;19.80;84.50;;;;;;5014933;28;20227;-71
2023/08/06 03:45:21;;;;;;;4.43;2.10;;;19.70;84.20;;;;;;5015158;28;20209;-71
2023/08/06 03:47:47;;;;;;;3.27;1.90;;;19.60;84.20;;;;;;5015045;28;20233;-71
2023/08/06 03:50:14;;;;;;;2.90;1.90;;;19.60;84.20;;;;;;5014594;28;20199;-72
2023/08/06 03:52:41;;;;;;;6.03;1.60;;;19.60;84.20;;;;;;4999890;28;20215;-72
2023/08/06 03:55:09;;;;;;;3.93;2.37;;;19.60;85.00;;;;;;5013644;28;20195;-71
2023/08/06 03:57:36;;;;;;;4.23;1.90;;;19.60;84.10;;;;;;5001588;28;20706;-71
2023/08/06 04:00:04;;;;;;;2.97;1.60;;;19.60;84.00;;;;;;5009510;28;20231;-71
2023/08/06 04:02:31;;;;;;;2.87;1.40;;;19.50;83.90;;;;;;5014804;28;20687;-71
2023/08/06 04:04:58;;;;;;;2.73;1.70;;;19.50;84.10;;;;;;5014360;28;20234;-71
2023/08/06 04:07:25;;;;;;;3.33;1.63;;;19.50;83.80;;;;;;5015228;28;20230;-71
2023/08/06 04:09:54;;;;;;;2.20;1.70;;;19.40;84.10;;;;;;5015194;28;20222;-72
2023/08/06 04:12:23;;;;;;;2.57;1.20;;;19.40;84.40;;;;;;5003060;28;20234;-72
2023/08/06 04:14:50;;;;;;;2.63;1.40;;;19.50;84.10;;;;;;5014951;28;20207;-72
2023/08/06 04:17:20;;;;;;;2.90;1.57;;;19.50;84.40;;;;;;5015221;28;20239;-72
2023/08/06 04:19:47;;;;;;;2.37;1.20;;;19.50;83.30;;;;;;5015034;28;20301;-71
2023/08/06 04:22:14;;;;;;;2.40;1.30;;;19.50;83.30;;;;;;5015680;28;20211;-72
2023/08/06 04:24:41;;;;;;;3.97;1.40;;;19.50;83.40;;;;;;5014586;28;20586;-71
2023/08/06 04:27:08;;;;;;;3.87;1.20;;;19.50;83.30;;;;;;5014287;28;20218;-71
2023/08/06 04:29:36;;;;;;;3.53;1.40;;;19.60;83.40;;;;;;5014428;28;20223;-71
2023/08/06 04:32:06;;;;;;;1.87;1.37;;;19.60;82.70;;;;;;5014451;28;20219;-71
2023/08/06 04:34:33;;;;;;;2.67;1.30;;;19.50;83.20;;;;;;5013740;28;20210;-72
2023/08/06 04:37:02;;;;;;;1.97;1.10;;;19.60;83.30;;;;;;5014315;28;20219;-72
2023/08/06 04:39:29;;;;;;;1.47;1.00;;;19.60;82.90;;;;;;4998701;28;20219;-72
2023/08/06 04:41:57;;;;;;;1.47;1.30;;;19.70;83.20;;;;;;5014377;28;20237;-72
2023/08/06 04:44:24;;;;;;;2.10;1.23;;;19.70;83.80;;;;;;5013647;28;20219;-72
2023/08/06 04:46:52;;;;;;;3.63;1.40;;;19.70;83.00;;;;;;5014147;28;20209;-72
2023/08/06 04:49:20;;;;;;;2.20;1.10;;;19.60;82.90;;;;;;5013719;28;20223;-72
2023/08/06 04:51:47;;;;;;;1.50;1.23;;;19.50;83.20;;;;;;5014133;28;20655;-72
2023/08/06 04:54:14;;;;;;;3.80;1.27;;;19.60;83.50;;;;;;5013392;28;20583;-72
2023/08/06 04:56:40;;;;;;;1.20;1.07;;;19.60;82.90;;;;;;5013993;28;20203;-72
2023/08/06 04:59:07;;;;;;;3.17;1.10;;;19.50;83.20;;;;;;5014110;28;20215;-72
2023/08/06 05:01:34;;;;;;;2.63;1.20;;;19.50;83.00;;;;;;5013098;28;20205;-72
2023/08/06 05:04:02;;;;;;;2.10;1.10;;;19.50;83.50;;;;;;5013246;28;20309;-72
2023/08/06 05:06:29;;;;;;;2.60;1.30;;;19.40;84.20;;;;;;5013769;28;20235;-71
2023/08/06 05:08:56;;;;;;;4.17;1.20;;;19.40;83.40;;;;;;5013698;28;20222;-72
2023/08/06 05:11:23;;;;;;;2.57;0.97;;;19.50;83.60;;;;;;5013747;28;20231;-72
2023/08/06 05:13:50;;;;;;;1.77;1.10;;;19.50;83.50;;;;;;5013786;28;20195;-71
2023/08/06 05:16:17;;;;;;;2.00;1.20;;;19.60;83.50;;;;;;5013160;28;20237;-71
2023/08/06 05:18:44;;;;;;;1.07;0.97;;;19.60;83.50;;;;;;5013730;28;20207;-71
2023/08/06 05:21:12;;;;;;;3.80;1.07;;;19.60;83.50;;;;;;5014177;28;20203;-72
2023/08/06 05:23:39;;;;;;;1.83;1.30;;;19.60;83.40;;;;;;5012724;28;20237;-72
2023/08/06 05:26:06;;;;;;;1.43;1.27;;;19.60;83.90;;;;;;5013565;28;20210;-72
2023/08/06 05:28:32;;;;;;;2.10;1.23;;;19.50;84.60;;;;;;5013461;28;20686;-72
2023/08/06 05:30:59;;;;;;;2.17;1.33;;;19.60;85.10;;;;;;5013227;28;20203;-72
2023/08/06 05:33:26;;;;;;;2.80;1.70;;;19.60;85.00;;;;;;5013409;28;20221;-72
2023/08/06 05:35:53;;;;;;;3.07;1.83;;;19.50;85.20;;;;;;5012723;28;20233;-72
2023/08/06 05:38:21;;;;;;;2.20;1.60;;;19.40;85.90;;;;;;5013470;28;20199;-72
2023/08/06 05:40:48;;;;;;;3.60;1.40;;;19.40;86.20;;;;;;5013277;28;20567;-72
2023/08/06 05:43:15;;;;;;;4.93;1.73;;;19.40;86.30;;;;;;5012774;28;20667;-72
2023/08/06 05:45:46;;;;;;;3.57;1.93;;;19.30;86.60;;;;;;5012527;28;20655;-72
2023/08/06 05:48:12;;;;;;;2.43;1.23;;;19.30;87.50;;;;;;5012846;28;20231;-71
2023/08/06 05:50:39;;;;;;;2.67;1.50;;;19.20;87.40;;;;;;5012947;28;20219;-71
2023/08/06 05:53:06;;;;;;;2.83;1.70;;;19.20;87.90;;;;;;5013048;28;20207;-71
2023/08/06 05:55:35;;;;;;;4.07;1.40;;;19.20;88.20;;;;;;5011601;28;20198;-71
2023/08/06 05:58:02;;;;;;;3.57;1.47;;;19.20;88.40;;;;;;5012655;28;20651;-72
2023/08/06 06:00:29;;;;;;;2.17;1.50;;;19.20;88.30;;;;;;5013173;28;20227;-71
2023/08/06 06:02:55;;;;;;;2.17;1.13;;;19.10;88.50;;;;;;5013857;28;20234;-71
2023/08/06 06:05:22;;;;;;;4.57;1.50;;;19.10;88.80;;;;;;5012818;28;20231;-72
2023/08/06 06:07:49;;;;;;;1.30;1.20;;;19.10;88.90;;;;;;5013412;28;20219;-71
2023/08/06 06:10:16;;;;;;;1.50;1.30;;;19.00;88.90;;;;;;5013572;28;20213;-71
2023/08/06 06:12:44;;;;;;;2.77;1.23;;;19.10;89.70;;;;;;5012890;28;20674;-71
2023/08/06 06:15:11;;;;;;;2.13;1.13;;;19.10;88.90;;;;;;5012671;28;20218;-71
2023/08/06 06:17:38;;;;;;;2.00;1.50;;;19.00;88.80;;;;;;5013194;28;20239;-71
2023/08/06 06:20:06;;;;;;;2.20;1.30;;;19.10;89.00;;;;;;5013502;28;20445;-71
2023/08/06 06:22:32;;;;;;;1.40;1.00;;;19.20;88.80;;;;;;5013112;28;20495;-71
2023/08/06 06:24:59;;;;;;;1.93;1.10;;;19.20;88.30;;;;;;5012377;28;20215;-71
2023/08/06 06:27:26;;;;;;;1.63;0.97;;;19.20;88.00;;;;;;5012342;28;20222;-72
2023/08/06 06:29:55;;;;;;;2.13;1.10;;;19.20;87.90;;;;;;5012126;28;20294;-71
2023/08/06 06:32:22;;;;;;;1.93;0.80;;;19.20;87.70;;;;;;5011104;28;20466;-71
2023/08/06 06:34:49;;;;;;;1.50;0.80;;;19.10;88.00;;;;;;5012320;28;20223;-71
2023/08/06 06:37:16;;;;;;;0.97;0.80;;;19.20;87.40;;;;;;5012072;28;20229;-71
2023/08/06 06:39:44;;;;;;;2.00;0.70;;;19.10;87.10;;;;;;5012193;28;20522;-72
2023/08/06 06:42:10;;;;;;;2.13;0.80;;;19.00;87.10;;;;;;5012236;28;20196;-71
2023/08/06 06:44:37;;;;;;;1.10;0.73;;;19.00;87.30;;;;;;5011305;28;20496;-71
2023/08/06 06:47:06;;;;;;;0.60;0.60;;;19.00;87.70;;;;;;5011838;28;20259;-71
2023/08/06 06:49:33;;;;;;;1.10;0.83;;;19.00;87.80;;;;;;5012055;28;20230;-71
2023/08/06 06:51:59;;;;;;;1.87;0.60;;;18.90;87.70;;;;;;5011760;28;20473;-71
2023/08/06 06:54:26;;;;;;;0.50;0.50;;;18.90;87.60;;;;;;5012215;28;20202;-71
2023/08/06 06:56:53;;;;;;;0.80;0.63;;;19.00;87.60;;;;;;5011795;28;20725;-71
2023/08/06 06:59:20;;;;;;;1.20;0.73;;;19.10;87.40;;;;;;5011659;28;20225;-71
2023/08/06 07:01:47;;;;;;;0.70;0.70;;;19.00;87.40;;;;;;5011848;28;20207;-71
2023/08/06 07:04:15;;;;;;;2.03;0.50;;;19.10;88.00;;;;;;5011472;28;20245;-71
2023/08/06 07:06:41;;;;;;;0.97;0.40;;;19.10;88.00;;;;;;5011921;28;20211;-70
2023/08/06 07:09:08;;;;;;;1.40;0.67;;;19.10;87.70;;;;;;5011471;28;20563;-72
2023/08/06 07:11:35;;;;;;;0.77;0.53;;;19.10;88.10;;;;;;5011957;28;20213;-71
2023/08/06 07:14:02;;;;;;;1.27;0.63;;;19.00;88.40;;;;;;5011418;28;20203;-72
2023/08/06 07:16:29;;;;;;;0.87;0.60;;;19.00;88.20;;;;;;5011279;28;20702;-72
2023/08/06 07:18:55;;;;;;;0.50;0.50;;;19.00;88.30;;;;;;5010673;28;20310;-72
2023/08/06 07:21:24;;;;;;;2.00;0.90;;;19.00;88.30;;;;;;5011878;28;20211;-72
2023/08/06 07:23:50;;;;;;;0.90;0.70;;;19.10;88.20;;;;;;5011481;28;20560;-72
2023/08/06 07:26:17;;;;;;;1.80;0.67;;;19.10;88.20;;;;;;5011649;28;20214;-72
2023/08/06 07:28:44;;;;;;;0.57;0.50;;;19.00;88.00;;;;;;5011147;28;20231;-72
2023/08/06 07:31:12;;;;;;;1.83;0.87;;;19.10;88.10;;;;;;5011244;28;20230;-72
2023/08/06 07:33:38;;;;;;;1.23;0.60;;;19.10;88.30;;;;;;5010945;28;20946;-72
2023/08/06 07:36:09;;;;;;;1.03;0.70;;;19.00;87.60;;;;;;5010947;28;20221;-72
2023/08/06 07:38:38;;;;;;;1.53;0.93;;;19.00;87.80;;;;;;5011436;28;20698;-72
2023/08/06 07:41:05;;;;;;;1.13;0.80;;;19.00;87.70;;;;;;5011386;28;20203;-72
2023/08/06 07:43:32;;;;;;;1.93;0.80;;;19.00;87.80;;;;;;5005810;28;20666;-72
2023/08/06 07:46:00;;;;;;;0.77;0.77;;;19.00;88.20;;;;;;5010739;28;20246;-72
2023/08/06 07:48:27;;;;;;;1.40;0.90;;;19.00;88.20;;;;;;5012017;28;20582;-72
2023/08/06 07:50:54;;;;;;;1.10;0.73;;;19.10;88.50;;;;;;5011698;28;20566;-72
2023/08/06 07:53:21;;;;;;;1.20;0.70;;;19.10;88.50;;;;;;5011361;28;20215;-72
2023/08/06 07:55:51;;;;;;;1.50;0.97;;;19.10;88.30;;;;;;5011163;28;20191;-72
2023/08/06 07:58:18;;;;;;;0.40;0.40;;;19.20;89.00;;;;;;5011482;28;20200;-72
2023/08/06 08:00:45;;;;;;;1.33;0.67;;;19.20;88.70;;;;;;5012230;28;20353;-72
2023/08/06 08:03:13;;;;;;;1.20;0.70;;;19.20;88.50;;;;;;5012127;28;20298;-72
2023/08/06 08:05:40;;;;;;;1.37;0.70;;;19.30;88.90;;;;;;4996562;28;20983;-72
2023/08/06 08:08:07;;;;;;;0.60;0.60;;;19.20;89.10;;;;;;5004477;28;20203;-72
2023/08/06 08:10:36;;;;;;;0.97;0.60;;;19.20;89.60;;;;;;5011514;28;20223;-72
2023/08/06 08:13:04;;;;;;;0.83;0.63;;;19.20;89.90;;;;;;5011320;28;20262;-72
2023/08/06 08:15:32;;;;;;;1.10;0.80;;;19.20;90.00;;;;;;5007121;28;20290;-72
2023/08/06 08:17:59;;;;;;;1.30;0.50;;;19.20;90.30;;;;;;5006216;28;20233;-72
2023/08/06 08:20:31;;;;;;;1.13;0.77;;;19.10;90.10;;;;;;5012483;28;20207;-72
2023/08/06 08:22:58;;;;;;;1.00;0.60;;;19.10;90.20;;;;;;5000584;28;20262;-72
2023/08/06 08:25:25;;;;;;;1.23;0.70;;;19.10;90.40;;;;;;4995110;28;20231;-72
2023/08/06 08:27:52;;;;;;;0.40;0.40;;;19.10;90.40;;;;;;5009955;28;20313;-72
2023/08/06 08:30:20;;;;;;;0.80;0.77;;;19.20;90.50;;;;;;5014941;28;20195;-72
2023/08/06 08:32:47;;;;;;;1.03;0.70;;;19.20;90.60;;;;;;4998501;28;20208;-71
2023/08/06 08:35:15;;;;;;;0.97;0.80;;;19.20;90.50;;;;;;4995489;28;20555;-72
2023/08/06 08:37:42;;;;;;;0.53;0.50;;;19.20;90.10;;;;;;4995349;28;20447;-72
2023/08/06 08:40:10;;;;;;;1.97;0.80;;;19.10;90.40;;;;;;4994835;28;21093;-72
2023/08/06 08:42:37;;;;;;;0.70;0.70;;;19.00;90.50;;;;;;5000473;28;20199;-72
2023/08/06 08:45:07;;;;;;;0.90;0.90;;;19.00;90.70;;;;;;5014499;28;20245;-72
2023/08/06 08:47:37;;;;;;;2.23;0.80;;;19.00;90.60;;;;;;5014781;28;20269;-72
2023/08/06 08:50:06;;;;;;;1.07;0.90;;;19.00;90.90;;;;;;5014542;28;20806;-72
2023/08/06 08:52:34;;;;;;;2.73;1.00;;;18.90;90.60;;;;;;5015036;28;20218;-72
2023/08/06 08:55:03;;;;;;;1.50;0.80;;;19.00;90.90;;;;;;5009160;28;20249;-72
2023/08/06 08:57:30;;;;;;;1.67;0.90;;;19.10;90.90;;;;;;5014708;28;20246;-72
2023/08/06 08:59:57;;;;;;;1.50;0.90;;;19.10;90.70;;;;;;5014466;28;20469;-72
2023/08/06 09:02:27;;;;;;;1.93;0.80;;;19.10;91.10;;;;;;5014186;28;20231;-72
2023/08/06 09:04:57;;;;;;;1.37;0.60;;;19.20;91.10;;;;;;5007478;28;20583;-72
2023/08/06 09:07:25;;;;;;;0.83;0.60;;;19.30;91.10;;;;;;5000061;28;20258;-72
2023/08/06 09:09:53;;;;;;;1.20;0.83;;;19.30;91.00;;;;;;5005649;28;20202;-72
2023/08/06 09:12:20;;;;;;;0.70;0.60;;;19.40;91.10;;;;;;4995089;28;20212;-73
2023/08/06 09:14:46;;;;;;;0.87;0.50;;;19.40;90.90;;;;;;4993907;28;20744;-73
2023/08/06 09:17:14;;;;;;;1.13;0.60;;;19.40;90.90;;;;;;5000577;28;20281;-72
2023/08/06 09:19:45;;;;;;;0.97;0.60;;;19.40;91.00;;;;;;5013531;28;20227;-73
2023/08/06 09:22:14;;;;;;;2.20;0.73;;;19.50;90.90;;;;;;5014021;28;20222;-73
2023/08/06 09:24:42;;;;;;;1.03;0.70;;;19.60;90.90;;;;;;5013023;28;20233;-72
2023/08/06 09:27:13;;;;;;;0.77;0.70;;;19.70;90.80;;;;;;5014049;28;20229;-73
2023/08/06 09:29:42;;;;;;;1.10;0.97;;;19.70;91.00;;;;;;5012176;28;20195;-72
2023/08/06 09:32:09;;;;;;;1.07;0.70;;;19.80;90.70;;;;;;5002171;28;20198;-73
2023/08/06 09:34:39;;;;;;;1.53;0.70;;;19.80;90.60;;;;;;5013306;28;20302;-72
2023/08/06 09:37:06;;;;;;;1.90;0.63;;;19.90;90.60;;;;;;5013480;28;20203;-73
2023/08/06 09:39:34;;;;;;;0.80;0.60;;;19.80;90.50;;;;;;5010585;28;20231;-73
2023/08/06 09:42:03;;;;;;;0.80;0.80;;;19.90;90.70;;;;;;4994986;28;20267;-72
2023/08/06 09:44:31;;;;;;;1.17;0.63;;;19.90;90.60;;;;;;5013381;28;20233;-73
2023/08/06 09:46:59;;;;;;;0.60;0.50;;;19.80;90.50;;;;;;5013307;28;20297;-72
2023/08/06 09:49:27;;;;;;;0.70;0.50;;;19.70;90.30;;;;;;5014309;28;20191;-72
2023/08/06 09:51:58;;;;;;;0.73;0.70;;;19.40;90.30;;;;;;5013308;28;20226;-72
2023/08/06 09:54:26;;;;;;;2.93;0.90;;;19.50;90.60;;;;;;5013253;28;20278;-73
2023/08/06 09:56:56;;;;;;;0.60;0.60;;;19.60;90.60;;;;;;5013673;28;20218;-72
2023/08/06 09:59:24;;;;;;;0.70;0.70;;;19.60;90.40;;;;;;5013188;28;20238;-72
2023/08/06 10:01:51;;;;;;;1.00;0.90;;;19.60;90.50;;;;;;5012947;28;20234;-72
2023/08/06 10:04:18;;;;;;;0.40;0.40;;;19.40;90.30;;;;;;5013229;28;20206;-72
2023/08/06 10:06:48;;;;;;;0.60;0.60;;;19.30;90.40;;;;;;5012285;28;20687;-72
2023/08/06 10:09:15;;;;;;;1.13;0.70;;;19.20;90.40;;;;;;5013193;28;20191;-72
2023/08/06 10:11:44;;;;;;;0.33;0.30;;;19.20;90.90;;;;;;5013088;28;20207;-71
2023/08/06 10:14:16;;;;;;;0.30;0.30;;;19.20;90.90;;;;;;5012422;28;20207;-72
2023/08/06 10:16:44;;;;;;;0.67;0.50;;;19.20;90.90;;;;;;5012452;28;20234;-72
2023/08/06 10:19:13;;;;;;;1.03;0.70;;;19.20;91.00;;;;;;5013097;28;20217;-72
2023/08/06 10:21:40;;;;;;;0.77;0.50;;;19.20;91.00;;;;;;5011792;28;20231;-72
2023/08/06 10:24:10;;;;;;;0.47;0.47;;;19.30;91.00;;;;;;5011393;28;20656;-73
2023/08/06 10:26:37;;;;;;;0.70;0.70;;;19.20;91.00;;;;;;5009954;28;20219;-72
2023/08/06 10:29:39;;;;;;;0.70;0.70;;;19.00;91.00;;;;;;5011990;28;20564;-72
2023/08/06 10:32:06;;;;;;;1.13;0.70;;;18.90;91.20;;;;;;5013137;28;20237;-72
2023/08/06 10:34:55;;;;;;;1.77;0.90;;;18.80;91.40;;;;;;5012680;28;20559;-72
2023/08/06 10:37:23;;;;;;;0.60;0.60;;;18.70;91.70;;;;;;5013074;28;20204;-73
2023/08/06 10:39:50;;;;;;;1.10;0.80;;;18.70;91.60;;;;;;5012760;28;20513;-72
2023/08/06 10:42:22;;;;;;;1.57;0.80;;;18.90;91.80;;;;;;4996178;28;20357;-72
2023/08/06 10:45:14;;;;;;;2.17;1.20;;;19.00;91.50;;;;;;5011585;28;20202;-72
2023/08/06 10:47:42;;;;;;;1.30;1.10;;;19.00;91.50;;;;;;4995235;28;20559;-71
2023/08/06 10:50:12;;;;;;;1.33;1.03;;;19.00;90.90;;;;;;4993033;28;20226;-72
2023/08/06 10:52:39;;;;;;;3.10;1.30;;;18.90;91.00;;;;;;5008792;28;20222;-72
2023/08/06 10:55:07;;;;;;;1.27;1.17;;;18.90;91.00;;;;;;5010128;28;20203;-71
2023/08/06 10:57:34;;;;;;;1.10;1.03;;;18.90;90.60;;;;;;5011584;28;20225;-72
2023/08/06 11:00:00;;;;;;;1.70;1.40;;;18.80;90.70;;;;;;5011871;28;20317;-71
2023/08/06 11:02:29;;;;;;;1.53;1.30;;;18.70;90.80;;;;;;5011937;28;20215;-72
2023/08/06 11:04:56;;;;;;;1.70;1.30;;;18.70;91.50;;;;;;5010437;28;20211;-72
2023/08/06 11:07:23;;;;;;;3.40;1.70;;;18.70;90.80;;;;;;5011125;28;20222;-72
2023/08/06 11:09:53;;;;;;;2.53;1.47;;;18.70;90.70;;;;;;4995633;28;20207;-72
2023/08/06 11:12:20;;;;;;;3.20;1.63;;;18.60;90.70;;;;;;4992186;28;20204;-72
2023/08/06 11:14:51;;;;;;;2.30;1.50;;;18.50;90.90;;;;;;4993456;28;20227;-72
2023/08/06 11:17:18;;;;;;;2.67;1.63;;;18.50;91.00;;;;;;5010164;28;20221;-72
2023/08/06 11:19:46;;;;;;;2.63;1.70;;;18.50;90.80;;;;;;5011020;28;20717;-73
2023/08/06 11:22:15;;;;;;;5.23;2.50;;;18.60;90.70;;;;;;5011892;28;20446;-72
2023/08/06 11:24:41;;;;;;;2.10;1.70;;;18.60;90.90;;;;;;5011870;28;20326;-72
2023/08/06 11:27:13;;;;;;;2.90;1.90;;;18.60;90.60;;;;;;5011222;28;20255;-72
2023/08/06 11:29:41;;;;;;;2.67;2.10;;;18.50;90.70;;;;;;5011407;28;20501;-72
2023/08/06 11:32:08;;;;;;;2.63;1.93;;;18.60;90.60;;;;;;4994562;28;20242;-72
2023/08/06 11:34:35;;;;;;;2.43;1.77;;;18.50;90.50;;;;;;4991862;28;20219;-72
2023/08/06 11:37:05;;;;;;;2.87;1.93;;;18.50;90.60;;;;;;4991787;28;20855;-72
2023/08/06 11:39:32;;;;;;;2.30;2.00;;;18.50;90.60;;;;;;4995645;28;20207;-72
2023/08/06 11:42:02;;;;;;;2.63;2.23;;;18.60;90.30;;;;;;4993941;28;20219;-73
2023/08/06 11:44:32;;;;;;;3.33;2.10;;;18.60;90.10;;;;;;5011565;28;20517;-72
2023/08/06 11:47:01;;;;;;;1.90;1.80;;;18.60;90.00;;;;;;5011452;28;20486;-72
2023/08/06 11:49:43;;;;;;;4.13;1.90;;;18.60;89.70;;;;;;5010359;28;20244;-72
2023/08/06 11:52:17;;;;;;;3.27;2.20;;;18.60;89.70;;;;;;5008784;28;20715;-73
2023/08/06 11:54:44;;;;;;;3.43;2.50;;;18.60;90.00;;;;;;5013470;28;20281;-72
2023/08/06 11:57:12;;;;;;;2.23;1.80;;;18.60;89.10;;;;;;5008945;28;20216;-72
2023/08/06 11:59:39;;;;;;;3.80;2.00;;;18.60;88.70;;;;;;5010536;28;20310;-73
2023/08/06 12:02:10;;;;;;;3.67;2.20;;;18.60;89.20;;;;;;5003621;28;20200;-73
2023/08/06 12:05:02;;;;;;;3.40;2.00;;;18.60;89.30;;;;;;4995260;28;20518;-73
2023/08/06 12:07:31;;;;;;;2.87;1.80;;;18.70;89.10;;;;;;4995602;28;20302;-73
2023/08/06 12:09:58;;;;;;;4.53;2.10;;;18.80;88.40;;;;;;4995292;28;20207;-72
2023/08/06 12:12:25;;;;;;;4.10;2.10;;;18.80;87.90;;;;;;4999459;28;20488;-72
2023/08/06 12:14:52;;;;;;;2.07;1.87;;;18.90;88.20;;;;;;5013736;28;20215;-72
2023/08/06 12:17:19;;;;;;;2.40;2.00;;;18.80;86.40;;;;;;4997257;28;20552;-72
2023/08/06 12:19:47;;;;;;;2.67;2.20;;;18.80;87.00;;;;;;4999357;28;20525;-72
2023/08/06 12:22:14;;;;;;;3.20;1.83;;;18.90;87.10;;;;;;5015267;28;20223;-72
2023/08/06 12:24:43;;;;;;;5.47;1.90;;;19.00;86.40;;;;;;5014161;28;20219;-72
2023/08/06 12:27:10;;;;;;;2.40;2.10;;;18.90;86.40;;;;;;5015807;28;20227;-73
2023/08/06 12:29:36;;;;;;;3.00;2.10;;;19.00;86.50;;;;;;5017801;28;20298;-72
2023/08/06 12:32:04;;;;;;;2.27;1.90;;;19.10;86.60;;;;;;5016194;28;20219;-72
2023/08/06 12:34:31;;;;;;;2.00;1.80;;;19.10;86.30;;;;;;5015484;28;20565;-72
2023/08/06 12:36:58;;;;;;;2.90;2.27;;;19.20;86.00;;;;;;5014260;28;20192;-72
2023/08/06 12:39:25;;;;;;;2.90;1.80;;;19.20;85.10;;;;;;5014019;28;20219;-72
2023/08/06 12:41:53;;;;;;;2.57;1.57;;;19.20;85.90;;;;;;5014998;28;20325;-72
2023/08/06 12:44:20;;;;;;;2.27;2.07;;;19.20;85.20;;;;;;4994883;28;20242;-72
2023/08/06 12:46:47;;;;;;;2.20;1.40;;;19.10;85.60;;;;;;4994278;28;20220;-72
2023/08/06 12:49:13;;;;;;;2.37;1.70;;;19.10;85.30;;;;;;5002774;28;20210;-72
2023/08/06 12:51:40;;;;;;;1.53;1.43;;;19.20;85.30;;;;;;5014383;28;20231;-72